CW1492 Weather Reports


Display with metric or nautical units.
time (UTC)temp
F
wind
direction
speed
MPH
gust
MPH
rain 1hr
in
rain 24hr
in
rain mn
in
humidity
%
barometer
mb
20230130053354 36 281 0.0 3.0 0.00 0.23 0.00 83 1016.8
20230130053331 38 39 1.0 2.0 0.00 0.00 0.00 64 1018.5
20230130051847 36 41 0.0 2.0 0.01 0.23 0.00 84 1016.4
20230130051841 38 39 0.0 4.0 0.00 0.00 0.00 63 1018.3
20230130050354 39 152 1.0 2.0 0.00 0.00 0.00 61 1018.4
20230130044827 40 157 1.0 7.0 0.00 0.00 0.00 59 1018.6
20230130044817 37 315 1.0 3.0 0.01 0.23 0.23 83 1016.9
20230130043408 41 55 4.0 9.0 0.00 0.00 0.00 56 1019.1
20230130043320 38 341 1.0 3.0 0.00 0.22 0.22 80 1017.2
20230130041841 41 27 4.0 8.0 0.00 0.00 0.00 56 1019.0
20230130041826 39 127 1.0 3.0 0.00 0.22 0.22 80 1017.1
20230130040334 41 39 2.0 4.0 0.00 0.00 0.00 57 1019.0
20230130040330 38 288 0.0 1.0 0.00 0.22 0.22 79 1017.1
20230130034848 41 46 2.0 3.0 0.00 0.00 0.00 57 1018.7
20230130034837 39 291 1.0 4.0 0.00 0.22 0.22 78 1016.8
20230130033411 39 39 1.0 2.0 0.00 0.22 0.22 77 1016.8
20230130033328 41 86 2.0 5.0 0.00 0.00 0.00 57 1018.6
20230130031927 41 135 1.0 4.0 0.00 0.00 0.00 56 1018.4
20230130031834 39 250 0.0 2.0 0.01 0.22 0.22 77 1016.6
20230130030406 39 277 1.0 3.0 0.01 0.22 0.22 77 1017.4
20230130030337 41 51 2.0 7.0 0.00 0.00 0.00 56 1019.0
20230130024847 40 105 1.0 2.0 0.01 0.22 0.22 76 1017.0
20230130024842 41 80 2.0 5.0 0.00 0.00 0.00 57 1018.7
20230130023338 41 57 2.0 5.0 0.00 0.00 0.00 57 1018.3
20230130023330 40 133 1.0 2.0 0.01 0.22 0.22 76 1016.4
20230130021942 41 218 2.0 5.0 0.00 0.00 0.00 56 1018.6
20230130021815 39 355 0.0 4.0 0.00 0.21 0.21 78 1016.7
20230130020409 40 303 1.0 2.0 0.00 0.21 0.21 77 1016.1
20230130020333 41 134 1.0 7.0 0.00 0.00 0.00 56 1018.1
20230130014932 41 77 2.0 4.0 0.00 0.00 0.00 56 1018.0
20230130014834 40 161 0.0 1.0 0.01 0.21 0.21 76 1016.2
20230130013349 41 74 1.0 4.0 0.00 0.00 0.00 56 1017.9
20230130013342 40 174 1.0 2.0 0.01 0.21 0.21 77 1016.2
20230130011904 41 64 1.0 6.0 0.00 0.00 0.00 57 1017.9
20230130011831 39 317 0.0 3.0 0.01 0.21 0.21 78 1016.1
20230130010358 40 58 3.0 6.0 0.00 0.00 0.00 59 1017.9
20230130010335 40 186 1.0 2.0 0.02 0.21 0.21 78 1016.1
20230130004854 41 72 2.0 4.0 0.00 0.00 0.00 57 1018.2
20230130004841 40 294 1.0 7.0 0.01 0.20 0.20 77 1016.4
20230130003437 42 89 1.0 5.0 0.00 0.00 0.00 56 1018.3
20230130003319 41 301 1.0 3.0 0.01 0.20 0.20 76 1016.6
20230130001840 42 96 2.0 4.0 0.00 0.00 0.00 55 1018.0
20230130001821 41 126 1.0 3.0 0.02 0.20 0.20 74 1016.2
20230130000354 41 163 1.0 3.0 0.01 0.19 0.19 76 1016.3
20230130000334 42 124 4.0 8.0 0.00 0.00 0.00 56 1018.3
20230129234857 41 112 1.0 7.0 0.01 0.19 0.19 77 1016.5
20230129234829 41 51 7.0 11.0 0.00 0.00 0.00 59 1018.4
20230129233418 40 45 3.0 6.0 0.00 0.00 0.00 62 1018.4
20230129233346 39 200 0.0 3.0 0.02 0.19 0.19 81 1016.6
20230129231912 42 157 1.0 3.0 0.00 0.00 0.00 60 1018.4
20230129231909 40 274 1.0 3.0 0.01 0.18 0.18 81 1016.7
20230129230340 41 60 3.0 9.0 0.00 0.00 0.00 60 1018.1
20230129230314 40 116 0.0 5.0 0.02 0.18 0.18 80 1016.5
20230129224837 41 59 5.0 8.0 0.00 0.00 0.00 61 1018.1
20230129223357 41 65 3.0 9.0 0.00 0.00 0.00 62 1018.1
20230129223322 41 152 2.0 6.0 0.02 0.17 0.17 79 1016.3
20230129221853 41 138 2.0 4.0 0.03 0.17 0.17 79 1016.3
20230129221830 41 39 5.0 11.0 0.00 0.00 0.00 62 1018.1
20230129220342 41 29 4.0 8.0 0.00 0.00 0.00 64 1017.9
20230129220338 41 121 3.0 6.0 0.02 0.17 0.16 81 1015.9
20230129214836 41 54 3.0 13.0 0.00 0.00 0.00 65 1017.7
20230129214819 41 140 2.0 3.0 0.03 0.17 0.16 82 1016.1
20230129213357 40 56 2.0 6.0 0.00 0.00 0.00 65 1018.0
20230129213323 41 50 1.0 6.0 0.03 0.16 0.15 82 1016.3
20230129211912 41 155 3.0 6.0 0.03 0.15 0.14 81 1016.4
20230129210339 40 66 3.0 6.0 0.00 0.00 0.00 64 1018.2
20230129210314 41 150 1.0 4.0 0.04 0.16 0.14 81 1016.4
20230129204839 41 115 1.0 8.0 0.04 0.15 0.13 81 1016.4
20230129204835 40 64 2.0 3.0 0.00 0.01 0.00 63 1018.2
20230129203410 41 142 1.0 5.0 0.04 0.14 0.12 81 1016.5
20230129203335 40 95 1.0 5.0 0.00 0.01 0.00 63 1018.2
20230129201852 40 154 0.0 5.0 0.00 0.01 0.00 63 1018.4
20230129201833 41 113 1.0 6.0 0.04 0.13 0.11 81 1016.6
20230129200354 41 183 2.0 6.0 0.03 0.15 0.10 81 1017.0
20230129200345 40 108 3.0 5.0 0.00 0.01 0.00 63 1018.7
20230129194838 40 152 3.0 6.0 0.03 0.14 0.09 82 1017.1
20230129194829 39 74 3.0 7.0 0.00 0.03 0.00 64 1018.8
20230129193418 40 173 1.0 3.0 0.03 0.13 0.08 82 1017.3
20230129193329 39 76 3.0 7.0 0.00 0.03 0.00 64 1019.0
20230129191846 39 54 0.0 3.0 0.00 0.03 0.00 64 1019.3
20230129191830 39 159 1.0 5.0 0.03 0.12 0.07 84 1017.6
20230129190347 38 76 2.0 8.0 0.00 0.03 0.00 64 1019.3
20230129190331 37 175 4.0 11.0 0.03 0.16 0.07 86 1017.7
20230129184838 38 81 4.0 9.0 0.00 0.08 0.00 64 1019.6
20230129184832 37 142 5.0 8.0 0.03 0.15 0.06 85 1018.0
20230129183329 38 76 2.0 8.0 0.00 0.08 0.00 64 1019.8
20230129183317 38 134 6.0 9.0 0.03 0.14 0.05 84 1017.9
20230129181844 37 41 3.0 8.0 0.00 0.08 0.00 64 1020.0
20230129181814 38 153 2.0 7.0 0.02 0.13 0.04 82 1018.8
20230129180357 38 256 1.0 4.0 0.03 0.23 0.04 83 1019.3
20230129180338 37 34 3.0 9.0 0.00 0.08 0.00 64 1021.2
20230129174832 37 106 5.0 10.0 0.00 0.15 0.00 64 1021.0
20230129174820 38 105 2.0 5.0 0.02 0.22 0.03 82 1019.1
20230129173410 35 73 6.0 10.0 0.00 0.15 0.00 65 1021.5
20230129173323 38 143 2.0 7.0 0.01 0.21 0.02 82 1019.8
20230129171947 35 332 0.0 2.0 0.00 0.15 0.00 61 1021.9
20230129171905 37 137 3.0 4.0 0.02 0.21 0.02 83 1020.2
20230129170355 35 184 0.0 2.0 0.01 0.31 0.01 81 1020.4
20230129170339 36 51 1.0 4.0 0.00 0.15 0.00 62 1022.2
20230129164835 36 92 1.0 6.0 0.00 0.22 0.00 63 1022.4
20230129164818 35 78 1.0 2.0 0.01 0.31 0.01 81 1020.7
20230129163443 35 108 0.0 3.0 0.00 0.22 0.00 61 1022.8
20230129163316 35 65 0.0 1.0 0.01 0.31 0.01 80 1021.2
20230129161856 34 47 0.0 0.0 0.00 0.22 0.00 62 1023.3
20230129161840 36 65 0.0 1.0 0.00 0.30 0.00 78 1021.4
20230129160415 34 47 0.0 0.0 0.00 0.22 0.00 62 1023.4
20230129160345 36 65 0.0 1.0 0.00 0.31 0.00 78 1021.7
20230129154837 34 47 0.0 0.0 0.00 0.24 0.00 63 1023.9
20230129154829 37 65 1.0 2.0 0.00 0.31 0.00 75 1022.1
20230129153336 34 47 0.0 0.0 0.00 0.24 0.00 62 1024.3
20230129153330 37 65 0.0 1.0 0.00 0.31 0.00 76 1022.4
20230129151837 37 98 0.0 2.0 0.00 0.31 0.00 74 1022.4
20230129151832 33 43 0.0 0.0 0.00 0.24 0.00 62 1024.5
20230129150405 32 1 0.0 2.0 0.00 0.24 0.00 64 1024.5
20230129150332 35 110 1.0 2.0 0.00 0.31 0.00 78 1022.7
20230129144900 30 172 0.0 2.0 0.00 0.24 0.00 68 1024.4
20230129144831 34 113 3.0 4.0 0.00 0.31 0.00 84 1022.6
20230129143359 28 291 0.0 2.0 0.00 0.24 0.00 71 1025.0
20230129143326 32 136 2.0 3.0 0.00 0.31 0.00 88 1023.2
20230129141910 30 140 0.0 2.0 0.00 0.31 0.00 91 1023.1
20230129141855 28 216 2.0 4.0 0.00 0.24 0.00 71 1024.9
20230129140347 29 137 1.0 3.0 0.00 0.31 0.00 91 1022.9
20230129140328 29 126 0.0 2.0 0.00 0.24 0.00 71 1024.6
20230129134840 28 192 0.0 2.0 0.00 0.24 0.00 73 1025.3
20230129134823 29 185 1.0 2.0 0.00 0.31 0.00 93 1023.7
20230129133341 27 201 0.0 0.0 0.00 0.24 0.00 73 1025.5
20230129133324 28 287 1.0 2.0 0.00 0.31 0.00 94 1024.1
20230129131917 26 201 0.0 1.0 0.00 0.24 0.00 73 1025.9
20230129131821 27 287 0.0 2.0 0.00 0.31 0.00 95 1024.2
20230129130329 26 345 0.0 0.0 0.00 0.24 0.00 73 1025.8
20230129130321 26 287 0.0 2.0 0.00 0.31 0.00 95 1024.0
20230129124914 26 8 0.0 0.0 0.00 0.24 0.00 73 1025.8
20230129124820 25 290 1.0 2.0 0.00 0.31 0.00 94 1024.2
20230129123354 27 8 0.0 0.0 0.00 0.24 0.00 72 1026.1
20230129123324 25 294 1.0 2.0 0.00 0.31 0.00 94 1024.5
20230129121954 27 8 0.0 0.0 0.00 0.24 0.00 73 1026.2
20230129121829 25 295 0.0 2.0 0.00 0.31 0.00 94 1024.6
20230129120425 26 8 1.0 2.0 0.00 0.24 0.00 78 1026.4
20230129120353 25 295 1.0 2.0 0.00 0.31 0.00 94 1024.6
20230129114839 25 8 0.0 1.0 0.00 0.24 0.00 79 1026.4
20230129114817 25 277 1.0 2.0 0.00 0.31 0.00 94 1024.7
20230129113414 25 8 0.0 2.0 0.00 0.24 0.00 78 1026.6
20230129113346 25 277 1.0 2.0 0.00 0.31 0.00 94 1024.7
20230129111828 25 8 0.0 0.0 0.00 0.24 0.00 77 1026.7
20230129111824 25 277 0.0 1.0 0.00 0.31 0.00 94 1024.9
20230129110403 25 8 0.0 0.0 0.00 0.24 0.00 78 1026.4
20230129110353 25 277 0.0 1.0 0.00 0.31 0.00 94 1024.6
20230129104832 25 277 0.0 1.0 0.00 0.31 0.00 94 1024.5
20230129104829 25 8 0.0 0.0 0.00 0.24 0.24 79 1026.2
20230129103329 25 8 0.0 0.0 0.00 0.24 0.24 79 1026.2
20230129103316 25 277 0.0 1.0 0.00 0.31 0.00 94 1024.6
20230129101952 25 277 0.0 0.0 0.00 0.31 0.00 94 1024.6
20230129101906 25 8 0.0 0.0 0.00 0.24 0.24 78 1026.3
20230129100352 25 277 0.0 1.0 0.00 0.31 0.00 94 1025.0
20230129100338 25 8 0.0 0.0 0.00 0.24 0.24 76 1026.6
20230129094944 25 8 0.0 0.0 0.00 0.24 0.24 74 1026.8
20230129094818 25 277 0.0 2.0 0.00 0.31 0.00 94 1025.1
20230129093401 25 8 0.0 0.0 0.00 0.24 0.24 73 1026.9
20230129093344 25 277 1.0 1.0 0.00 0.31 0.00 94 1025.3
20230129091922 26 8 0.0 0.0 0.00 0.24 0.24 73 1027.1
20230129091818 25 277 1.0 2.0 0.00 0.31 0.00 94 1025.6
20230129090414 26 8 0.0 0.0 0.00 0.24 0.24 72 1027.4
20230129090410 25 277 1.0 2.0 0.00 0.31 0.00 94 1025.9
20230129084915 26 8 0.0 2.0 0.00 0.24 0.24 74 1027.5
20230129084833 25 277 0.0 1.0 0.00 0.31 0.00 94 1025.8
20230129083349 26 8 0.0 1.0 0.00 0.24 0.24 71 1027.4
20230129083334 25 277 1.0 2.0 0.00 0.31 0.00 94 1025.6
20230129081837 26 8 0.0 0.0 0.00 0.24 0.24 70 1027.1
20230129081819 25 277 0.0 2.0 0.00 0.31 0.00 94 1025.5
20230129080415 27 8 0.0 0.0 0.00 0.24 0.24 70 1026.8
20230129080350 25 277 1.0 1.0 0.00 0.31 0.00 94 1025.3
20230129074848 27 8 0.0 0.0 0.00 0.24 0.24 70 1026.8
20230129074839 25 277 1.0 2.0 0.00 0.31 0.00 94 1025.2
20230129073412 25 277 0.0 0.0 0.00 0.31 0.00 95 1025.4
20230129073326 27 8 0.0 1.0 0.00 0.24 0.24 70 1026.9
20230129071841 27 8 0.0 0.0 0.00 0.24 0.24 69 1027.0
20230129071826 25 277 0.0 2.0 0.00 0.31 0.00 94 1025.4
20230129070415 27 8 0.0 0.0 0.00 0.24 0.24 70 1026.9
20230129070338 24 277 0.0 2.0 0.00 0.31 0.00 94 1025.3
20230129064915 27 8 0.0 0.0 0.00 0.24 0.24 69 1026.8
20230129064900 24 277 1.0 1.0 0.00 0.31 0.00 94 1025.2
20230129063351 24 277 2.0 2.0 0.00 0.31 0.00 94 1025.1
20230129063327 27 8 0.0 0.0 0.00 0.24 0.24 69 1026.5
20230129061844 27 8 1.0 2.0 0.00 0.24 0.24 70 1026.5
20230129061838 24 277 0.0 1.0 0.00 0.31 0.00 93 1025.2
20230129060338 26 8 0.0 1.0 0.00 0.24 0.24 69 1026.6
20230129060323 24 277 0.0 1.0 0.00 0.31 0.00 93 1025.1
20230129054906 24 277 1.0 2.0 0.00 0.31 0.00 93 1025.2
20230129054855 27 8 0.0 2.0 0.00 0.24 0.24 66 1026.5